Time;durP1;ratioP1;P1;durP2;ratioP2;P2;SDS_P1;SDS_P2;PMS_P1;PMS_P2;Temp;Humidity;BMP_temperature;BMP_pressure;BME280_temperature;BME280_humidity;BME280_pressure;Samples;Min_cycle;Max_cycle;Signal;HPM_P1;HPM_P2
2023/08/23 00:00:35;;;;;;;4.57;4.17;;;;;;;23.57;100.00;100529.84;4987674;28;20227;-76
2023/08/23 00:03:00;;;;;;;4.23;3.93;;;;;;;23.54;100.00;100537.09;4984340;28;20332;-78
2023/08/23 00:05:25;;;;;;;4.33;3.97;;;;;;;23.50;100.00;100531.16;4985956;28;20193;-77
2023/08/23 00:07:51;;;;;;;4.77;4.27;;;;;;;23.46;100.00;100520.88;4987483;28;20228;-77
2023/08/23 00:10:16;;;;;;;4.50;4.10;;;;;;;23.41;100.00;100519.34;4983241;28;20595;-77
2023/08/23 00:12:42;;;;;;;4.57;4.17;;;;;;;23.36;100.00;100516.13;4986684;28;20197;-75
2023/08/23 00:15:07;;;;;;;4.57;4.17;;;;;;;23.31;100.00;100525.25;4987301;28;20312;-77
2023/08/23 00:17:33;;;;;;;4.83;4.43;;;;;;;23.27;100.00;100530.72;4980884;28;20267;-76
2023/08/23 00:19:58;;;;;;;5.20;4.70;;;;;;;23.23;100.00;100529.19;4978973;28;20232;-77
2023/08/23 00:22:23;;;;;;;5.80;4.07;;;;;;;23.21;100.00;100531.06;5000153;28;20221;-76
2023/08/23 00:24:49;;;;;;;4.60;4.30;;;;;;;23.17;100.00;100529.50;4983766;28;20202;-76
2023/08/23 00:27:14;;;;;;;5.70;4.87;;;;;;;23.14;100.00;100529.72;4981205;28;20217;-76
2023/08/23 00:29:39;;;;;;;5.30;4.90;;;;;;;23.08;100.00;100527.41;4985037;28;20217;-74
2023/08/23 00:32:05;;;;;;;5.40;4.90;;;;;;;23.04;100.00;100526.75;4984804;28;20215;-76
2023/08/23 00:34:30;;;;;;;5.67;5.17;;;;;;;23.01;100.00;100520.78;4980292;28;20193;-75
2023/08/23 00:36:55;;;;;;;6.10;5.03;;;;;;;22.97;100.00;100522.75;4985781;28;21084;-77
2023/08/23 00:39:21;;;;;;;6.30;5.67;;;;;;;22.95;100.00;100522.84;4991088;28;20213;-76
2023/08/23 00:41:47;;;;;;;6.00;5.40;;;;;;;22.95;100.00;100524.63;4978287;28;20193;-76
2023/08/23 00:44:12;;;;;;;5.73;5.20;;;;;;;22.94;100.00;100522.91;4982919;28;20191;-75
2023/08/23 00:46:38;;;;;;;7.07;5.97;;;;;;;22.93;100.00;100524.72;4974461;28;20240;-77
2023/08/23 00:49:04;;;;;;;6.53;5.93;;;;;;;22.90;100.00;100519.63;4984917;28;20185;-76
2023/08/23 00:51:30;;;;;;;7.07;6.37;;;;;;;22.89;100.00;100522.34;4983862;28;20253;-75
2023/08/23 00:53:57;;;;;;;6.73;6.13;;;;;;;22.85;100.00;100516.38;4983813;28;20284;-78
2023/08/23 00:56:22;;;;;;;7.23;6.63;;;;;;;22.82;100.00;100525.31;4984584;28;20235;-77
2023/08/23 00:58:48;;;;;;;6.90;6.30;;;;;;;22.78;100.00;100518.50;4982176;28;20217;-76
2023/08/23 01:01:13;;;;;;;6.47;5.87;;;;;;;22.75;100.00;100520.47;4987154;28;20258;-76
2023/08/23 01:03:39;;;;;;;7.80;6.90;;;;;;;22.75;100.00;100526.63;4983965;28;22070;-76
2023/08/23 01:06:16;;;;;;;7.50;6.40;;;;;;;22.73;100.00;100535.53;4984827;28;20269;-77
2023/08/23 01:09:34;;;;;;;9.10;7.17;;;;;;;22.74;100.00;100527.56;4976349;28;20189;-77
2023/08/23 01:12:11;;;;;;;8.10;7.20;;;;;;;22.74;100.00;100527.56;4970840;28;20277;-76
2023/08/23 01:15:02;;;;;;;7.27;6.60;;;;;;;22.71;100.00;100526.88;4977288;28;20193;-77
2023/08/23 01:17:29;;;;;;;7.20;6.37;;;;;;;22.68;100.00;100531.41;4981223;28;20225;-78
2023/08/23 01:19:56;;;;;;;7.10;6.43;;;;;;;22.62;100.00;100531.72;4982720;28;20355;-77
2023/08/23 01:22:22;;;;;;;7.77;6.90;;;;;;;22.53;100.00;100532.25;4977823;28;20200;-78
2023/08/23 01:24:49;;;;;;;7.70;6.57;;;;;;;22.47;100.00;100525.50;4982261;28;20204;-77
2023/08/23 01:27:16;;;;;;;8.03;6.97;;;;;;;22.38;100.00;100521.59;4985620;28;20212;-76
2023/08/23 01:29:43;;;;;;;6.70;6.10;;;;;;;22.33;100.00;100525.38;4981915;28;20242;-77
2023/08/23 01:32:33;;;;;;;7.40;6.60;;;;;;;22.28;100.00;100527.44;4982617;28;20185;-77
2023/08/23 01:35:09;;;;;;;7.10;6.40;;;;;;;22.23;100.00;100528.53;4984722;28;20243;-77
2023/08/23 01:37:42;;;;;;;6.80;5.97;;;;;;;22.20;100.00;100528.69;4984213;28;20211;-76
2023/08/23 01:40:09;;;;;;;6.57;5.93;;;;;;;22.21;100.00;100529.56;4982900;28;20220;-76
2023/08/23 01:42:36;;;;;;;5.97;5.50;;;;;;;22.22;100.00;100528.63;4997063;28;20304;-76
2023/08/23 01:45:02;;;;;;;6.00;5.40;;;;;;;22.20;100.00;100525.22;4983779;28;20919;-77
2023/08/23 01:47:28;;;;;;;6.20;5.60;;;;;;;22.16;100.00;100536.84;4986436;28;20215;-77
2023/08/23 01:49:53;;;;;;;6.80;6.10;;;;;;;22.08;100.00;100530.19;4981503;28;20303;-76
2023/08/23 01:52:18;;;;;;;6.13;5.70;;;;;;;22.02;100.00;100534.94;4983919;28;20220;-78
2023/08/23 01:54:44;;;;;;;6.50;5.43;;;;;;;21.99;100.00;100532.50;4982133;28;20193;-78
2023/08/23 01:57:09;;;;;;;5.63;5.17;;;;;;;21.99;100.00;100537.75;4977118;28;20208;-75
2023/08/23 01:59:36;;;;;;;6.30;5.70;;;;;;;22.00;100.00;100539.47;4979119;28;20243;-76
2023/08/23 02:02:01;;;;;;;5.83;5.33;;;;;;;21.98;100.00;100536.88;4976279;28;20201;-77
2023/08/23 02:04:27;;;;;;;5.43;4.90;;;;;;;21.98;100.00;100536.06;4977273;28;20796;-76
2023/08/23 02:06:53;;;;;;;6.03;5.50;;;;;;;21.98;100.00;100525.50;4981962;28;20288;-76
2023/08/23 02:09:18;;;;;;;5.60;5.20;;;;;;;21.98;100.00;100528.16;4981236;28;20185;-76
2023/08/23 02:11:43;;;;;;;6.27;5.70;;;;;;;21.95;100.00;100526.50;4978670;28;20265;-76
2023/08/23 02:14:09;;;;;;;6.43;5.80;;;;;;;21.92;100.00;100522.25;4985501;28;20197;-77
2023/08/23 02:16:34;;;;;;;6.90;6.23;;;;;;;21.90;100.00;100516.22;4979850;28;20690;-75
2023/08/23 02:18:59;;;;;;;6.50;6.03;;;;;;;21.89;100.00;100519.78;4979674;28;20327;-77
2023/08/23 02:21:25;;;;;;;6.30;5.80;;;;;;;21.88;100.00;100519.88;4997721;28;20204;-76
2023/08/23 02:23:50;;;;;;;6.77;5.93;;;;;;;21.87;100.00;100529.53;4983304;28;20636;-76
2023/08/23 02:26:15;;;;;;;6.13;5.67;;;;;;;21.87;100.00;100526.06;4983928;28;20712;-76
2023/08/23 02:28:41;;;;;;;6.80;6.20;;;;;;;21.84;100.00;100523.59;4978270;28;20193;-78
2023/08/23 02:31:07;;;;;;;7.07;6.37;;;;;;;21.82;100.00;100525.47;4984523;28;20220;-77
2023/08/23 02:33:32;;;;;;;7.10;6.47;;;;;;;21.80;100.00;100535.22;4973087;28;20193;-77
2023/08/23 02:35:57;;;;;;;6.47;5.87;;;;;;;21.76;100.00;100529.25;4996007;28;20209;-77
2023/08/23 02:38:23;;;;;;;6.77;6.17;;;;;;;21.74;100.00;100528.50;4980491;28;20220;-76
2023/08/23 02:40:48;;;;;;;6.53;6.03;;;;;;;21.72;100.00;100530.34;4983377;28;20904;-78
2023/08/23 02:43:13;;;;;;;6.83;6.20;;;;;;;21.69;100.00;100528.75;4981002;28;20193;-77
2023/08/23 02:45:40;;;;;;;6.83;6.23;;;;;;;21.66;100.00;100534.16;4983003;28;20220;-76
2023/08/23 02:48:07;;;;;;;6.30;5.80;;;;;;;21.64;100.00;100532.53;4983848;28;20576;-76
2023/08/23 02:50:32;;;;;;;6.80;6.10;;;;;;;21.62;100.00;100541.38;4981979;28;20212;-78
2023/08/23 02:52:57;;;;;;;6.77;6.27;;;;;;;21.61;100.00;100534.41;4986609;28;20192;-78
2023/08/23 02:55:23;;;;;;;7.10;6.40;;;;;;;21.62;100.00;100530.00;4983085;28;20213;-78
2023/08/23 02:57:48;;;;;;;7.83;7.03;;;;;;;21.58;100.00;100523.16;4979149;28;20189;-77
2023/08/23 03:00:14;;;;;;;7.47;6.77;;;;;;;21.52;100.00;100519.06;5002775;28;20247;-77
2023/08/23 03:02:39;;;;;;;6.87;6.30;;;;;;;21.51;100.00;100511.22;4986626;28;20720;-79
2023/08/23 03:05:05;;;;;;;8.00;6.80;;;;;;;21.51;100.00;100513.84;4986685;28;20197;-79
2023/08/23 03:07:30;;;;;;;7.03;6.43;;;;;;;21.50;100.00;100512.13;4981061;28;20977;-77
2023/08/23 03:09:55;;;;;;;6.37;5.77;;;;;;;21.47;100.00;100521.06;4988420;28;20192;-79
2023/08/23 03:12:21;;;;;;;6.40;5.90;;;;;;;21.44;100.00;100519.44;4991375;28;20217;-77
2023/08/23 03:14:46;;;;;;;5.97;5.47;;;;;;;21.40;100.00;100517.06;4988788;28;20196;-77
2023/08/23 03:17:11;;;;;;;6.17;5.57;;;;;;;21.36;100.00;100515.50;4983827;28;20251;-76
2023/08/23 03:19:37;;;;;;;6.93;6.40;;;;;;;21.32;100.00;100525.34;4986844;28;20713;-77
2023/08/23 03:22:03;;;;;;;6.33;5.80;;;;;;;21.29;100.00;100522.84;4986688;28;20199;-77
2023/08/23 03:24:28;;;;;;;6.10;5.67;;;;;;;21.25;100.00;100521.28;4983718;28;20185;-77
2023/08/23 03:26:53;;;;;;;6.00;5.60;;;;;;;21.24;100.00;100516.94;4985102;28;20724;-77
2023/08/23 03:29:19;;;;;;;5.80;5.30;;;;;;;21.22;100.00;100514.41;4985473;28;20276;-76
2023/08/23 03:31:44;;;;;;;6.20;5.70;;;;;;;21.21;100.00;100512.69;4985238;28;20193;-77
2023/08/23 03:34:09;;;;;;;6.17;5.73;;;;;;;21.20;100.00;100518.91;4988398;28;20270;-76
2023/08/23 03:36:35;;;;;;;6.53;6.10;;;;;;;21.17;100.00;100511.16;4980932;28;21053;-78
2023/08/23 03:39:00;;;;;;;7.00;6.40;;;;;;;21.12;100.00;100502.63;4986257;28;20248;-76
2023/08/23 03:41:25;;;;;;;6.03;5.63;;;;;;;21.11;100.00;100506.19;4985013;28;20227;-76
2023/08/23 03:43:50;;;;;;;5.77;5.37;;;;;;;21.12;100.00;100505.25;4983527;28;20192;-77
2023/08/23 03:46:16;;;;;;;6.37;5.87;;;;;;;21.10;100.00;100510.59;4987147;28;20215;-77
2023/08/23 03:48:42;;;;;;;6.73;6.13;;;;;;;21.10;100.00;100507.13;4984292;28;20779;-76
2023/08/23 03:51:07;;;;;;;6.60;6.00;;;;;;;21.09;100.00;100508.06;4978922;28;20193;-76
2023/08/23 03:53:33;;;;;;;6.57;6.07;;;;;;;21.07;100.00;100513.38;4998719;28;20693;-76
2023/08/23 03:55:58;;;;;;;6.63;6.03;;;;;;;21.06;100.00;100514.31;4985170;28;20585;-76
2023/08/23 03:58:24;;;;;;;7.50;6.80;;;;;;;21.04;100.00;100515.31;4987328;28;20189;-77
2023/08/23 04:00:52;;;;;;;6.97;6.40;;;;;;;21.00;100.00;100506.72;4978221;28;20301;-76
2023/08/23 04:03:17;;;;;;;6.97;6.47;;;;;;;20.96;100.00;100503.38;4982876;28;20197;-77
2023/08/23 04:05:42;;;;;;;7.47;6.87;;;;;;;20.98;100.00;100509.41;4981314;28;20562;-76
2023/08/23 04:08:08;;;;;;;7.80;7.10;;;;;;;20.99;100.00;100505.03;5003926;28;20196;-76
2023/08/23 04:10:34;;;;;;;8.30;7.60;;;;;;;21.02;100.00;100510.16;4980353;28;20654;-75
2023/08/23 04:12:59;;;;;;;8.53;7.60;;;;;;;21.02;100.00;100505.72;4977952;28;20204;-76
2023/08/23 04:15:24;;;;;;;9.10;7.50;;;;;;;21.02;100.00;100510.16;5002414;28;20189;-76
2023/08/23 04:17:50;;;;;;;7.70;7.00;;;;;;;21.00;100.00;100507.56;4994954;28;20223;-76
2023/08/23 04:20:15;;;;;;;12.67;8.03;;;;;;;21.01;100.00;100503.16;4978785;28;20220;-75
2023/08/23 04:22:40;;;;;;;9.23;8.07;;;;;;;21.01;100.00;100500.53;4980962;28;20202;-77
2023/08/23 04:25:06;;;;;;;9.13;7.50;;;;;;;20.98;100.00;100491.00;4988800;28;20192;-78
2023/08/23 04:27:32;;;;;;;9.03;7.67;;;;;;;20.98;100.00;100500.69;4983204;28;20220;-78
2023/08/23 04:29:57;;;;;;;8.50;7.43;;;;;;;20.95;100.00;100500.84;4985844;28;20272;-77
2023/08/23 04:32:22;;;;;;;7.07;6.50;;;;;;;20.96;100.00;100503.38;4981148;28;20279;-77
2023/08/23 04:34:48;;;;;;;8.17;7.47;;;;;;;20.95;100.00;100498.19;4983143;28;20197;-76
2023/08/23 04:37:13;;;;;;;8.00;7.30;;;;;;;20.95;100.00;100503.47;4985161;28;20212;-77
2023/08/23 04:39:39;;;;;;;12.40;8.03;;;;;;;20.96;100.00;100515.69;5000275;28;20216;-78
2023/08/23 04:42:05;;;;;;;10.57;7.83;;;;;;;20.91;100.00;100507.16;4979736;28;20251;-76
2023/08/23 04:44:30;;;;;;;11.23;7.80;;;;;;;20.83;100.00;100504.91;4981376;28;20204;-76
2023/08/23 04:46:56;;;;;;;8.47;7.47;;;;;;;20.73;100.00;100503.63;4985080;28;20213;-78
2023/08/23 04:49:21;;;;;;;8.03;7.20;;;;;;;20.65;100.00;100514.50;4977818;28;20196;-77
2023/08/23 04:51:46;;;;;;;8.80;7.17;;;;;;;20.58;100.00;100508.69;4978799;28;20205;-76
2023/08/23 04:54:11;;;;;;;9.17;7.10;;;;;;;20.59;100.00;100517.41;4980470;28;20255;-76
2023/08/23 04:56:37;;;;;;;7.53;6.90;;;;;;;20.60;100.00;100516.50;4983082;28;20209;-77
2023/08/23 04:59:02;;;;;;;9.00;7.67;;;;;;;20.62;100.00;100518.16;4983473;28;20299;-76
2023/08/23 05:01:28;;;;;;;8.53;7.63;;;;;;;20.65;100.00;100523.22;4979130;28;20195;-79
2023/08/23 05:03:54;;;;;;;8.27;7.50;;;;;;;20.71;100.00;100520.31;4983651;28;20730;-79
2023/08/23 05:06:19;;;;;;;10.50;7.97;;;;;;;20.76;100.00;100527.19;4989859;28;20355;-76
2023/08/23 05:08:44;;;;;;;7.80;7.07;;;;;;;20.81;100.00;100512.00;4981423;28;20276;-77
2023/08/23 05:11:10;;;;;;;7.70;6.90;;;;;;;20.87;100.00;100511.72;4980351;28;20201;-78
2023/08/23 05:13:35;;;;;;;12.17;8.03;;;;;;;20.92;100.00;100512.38;4983451;28;20186;-75
2023/08/23 05:16:00;;;;;;;12.70;8.07;;;;;;;21.04;100.00;100517.94;4979951;28;20812;-78
2023/08/23 05:18:26;;;;;;;17.10;8.43;;;;;;;21.08;100.00;100520.34;4980894;28;20736;-76
2023/08/23 05:20:55;;;;;;;12.87;7.97;;;;;;;21.14;100.00;100517.44;4973123;28;20214;-78
2023/08/23 05:23:22;;;;;;;12.73;8.30;;;;;;;21.24;100.00;100519.59;4997612;28;20238;-78
2023/08/23 05:25:48;;;;;;;11.73;9.30;;;;;;;21.34;100.00;100512.91;4982490;28;20213;-77
2023/08/23 05:28:13;;;;;;;9.47;8.50;;;;;;;21.44;100.00;100510.69;4988947;28;20200;-77
2023/08/23 05:30:41;;;;;;;11.07;8.97;;;;;;;21.57;100.00;100510.91;4981507;28;20204;-79
2023/08/23 05:33:06;;;;;;;11.60;9.13;;;;;;;21.72;100.00;100515.41;4987535;28;20545;-78
2023/08/23 05:35:33;;;;;;;10.57;7.80;;;;;;;21.97;100.00;100521.19;4979849;28;20199;-78
2023/08/23 05:37:58;;;;;;;11.73;8.20;;;;;;;22.15;100.00;100520.19;5006724;28;20296;-76
2023/08/23 05:40:23;;;;;;;13.37;8.87;;;;;;;22.29;100.00;100527.34;4981433;28;20914;-77
2023/08/23 05:42:48;;;;;;;14.60;8.47;;;;;;;22.19;100.00;100523.50;4982807;28;21089;-78
2023/08/23 05:45:14;;;;;;;15.30;8.67;;;;;;;22.42;100.00;100529.34;4975017;28;20193;-77
2023/08/23 05:47:39;;;;;;;9.87;7.17;;;;;;;22.67;100.00;100534.09;4997707;28;20211;-77
2023/08/23 05:50:05;;;;;;;8.93;7.10;;;;;;;22.78;100.00;100525.59;4978930;28;20189;-76
2023/08/23 05:52:30;;;;;;;7.77;6.97;;;;;;;23.22;100.00;100535.41;4982040;28;20197;-77
2023/08/23 05:54:55;;;;;;;8.00;6.60;;;;;;;23.55;100.00;100531.72;4980225;28;20201;-78
2023/08/23 05:57:21;;;;;;;12.87;6.80;;;;;;;23.39;100.00;100537.06;4984068;28;20217;-77
2023/08/23 05:59:46;;;;;;;11.00;6.70;;;;;;;23.56;100.00;100537.84;4984568;28;21081;-78
2023/08/23 06:02:11;;;;;;;6.80;6.10;;;;;;;23.92;100.00;100548.94;4998950;28;20208;-77
2023/08/23 06:04:37;;;;;;;7.57;6.83;;;;;;;23.87;99.93;100538.66;4977821;28;20193;-76
2023/08/23 06:07:03;;;;;;;8.67;6.70;;;;;;;24.13;98.00;100537.09;4981918;28;20222;-77
2023/08/23 06:09:30;;;;;;;9.37;6.40;;;;;;;23.86;97.91;100542.22;4982386;28;20185;-78
2023/08/23 06:11:56;;;;;;;9.50;6.50;;;;;;;24.15;98.04;100540.47;4982336;28;20197;-77
2023/08/23 06:14:24;;;;;;;8.80;6.47;;;;;;;23.92;98.81;100538.34;4983291;28;20200;-77
2023/08/23 06:16:50;;;;;;;8.33;6.50;;;;;;;24.15;98.01;100545.78;4979727;28;20216;-78
2023/08/23 06:19:15;;;;;;;7.77;6.37;;;;;;;24.28;96.35;100540.53;4977508;28;20217;-77
2023/08/23 06:21:41;;;;;;;8.87;7.00;;;;;;;24.05;97.95;100536.69;4977546;28;20196;-78
2023/08/23 06:24:07;;;;;;;7.87;6.23;;;;;;;24.51;96.28;100539.09;4978920;28;20202;-75
2023/08/23 06:26:32;;;;;;;11.10;6.43;;;;;;;23.93;99.26;100538.28;4978457;28;20212;-75
2023/08/23 06:28:58;;;;;;;7.87;6.97;;;;;;;24.04;97.39;100535.84;4979233;28;20232;-77
2023/08/23 06:31:23;;;;;;;7.43;6.17;;;;;;;24.07;98.92;100532.16;4977308;28;20231;-80
2023/08/23 06:33:48;;;;;;;7.00;6.37;;;;;;;24.08;100.00;100535.66;4981449;28;20860;-76
2023/08/23 06:36:14;;;;;;;6.67;6.00;;;;;;;24.14;99.73;100544.06;4982932;28;20212;-78
2023/08/23 06:38:41;;;;;;;9.13;6.70;;;;;;;24.25;97.72;100540.75;4982444;28;20193;-76
2023/08/23 06:41:06;;;;;;;9.27;6.47;;;;;;;24.48;97.68;100544.59;4983414;28;20225;-78
2023/08/23 06:43:31;;;;;;;6.67;5.83;;;;;;;24.86;95.52;100548.41;4983000;28;20381;-75
2023/08/23 06:45:57;;;;;;;7.97;6.40;;;;;;;25.01;93.88;100554.47;4987404;28;20566;-78
2023/08/23 06:48:22;;;;;;;6.27;5.67;;;;;;;24.66;95.97;100552.28;4988872;28;20268;-77
2023/08/23 06:50:47;;;;;;;6.43;5.77;;;;;;;24.41;97.19;100545.09;4983391;28;20272;-79
2023/08/23 06:53:12;;;;;;;6.63;6.13;;;;;;;24.31;97.55;100550.09;5005038;28;20568;-78
2023/08/23 06:55:40;;;;;;;8.57;6.43;;;;;;;24.60;95.17;100550.88;5002792;28;20212;-76
2023/08/23 06:58:06;;;;;;;7.40;6.07;;;;;;;25.18;94.32;100547.22;4994046;28;20279;-79
2023/08/23 07:00:32;;;;;;;9.63;6.00;;;;;;;25.55;92.98;100544.78;4995933;28;20287;-78
2023/08/23 07:02:57;;;;;;;5.43;4.93;;;;;;;25.45;93.61;100549.88;4996073;28;20641;-77
2023/08/23 07:05:22;;;;;;;5.43;4.90;;;;;;;25.74;90.92;100543.50;4984499;28;20250;-78
2023/08/23 07:07:47;;;;;;;5.80;5.28;;;;;;;25.23;92.44;100543.31;4999075;28;20211;-77
2023/08/23 07:10:13;;;;;;;6.53;5.67;;;;;;;25.12;92.78;100543.19;4986483;28;20181;-76
2023/08/23 07:12:39;;;;;;;7.40;5.70;;;;;;;25.05;93.08;100555.13;4984534;28;20301;-77
2023/08/23 07:15:05;;;;;;;6.00;5.38;;;;;;;24.88;93.99;100553.59;4986193;28;20304;-76
2023/08/23 07:17:33;;;;;;;7.63;5.40;;;;;;;25.23;93.99;100547.78;4987636;28;20221;-77
2023/08/23 07:19:58;;;;;;;8.60;4.57;;;;;;;25.54;91.43;100557.19;4984681;28;20278;-80
2023/08/23 07:22:24;;;;;;;5.37;4.87;;;;;;;25.48;92.24;100543.50;4985832;28;20193;-76
2023/08/23 07:24:49;;;;;;;5.77;4.83;;;;;;;25.14;91.63;100551.88;4984501;28;21415;-77
2023/08/23 07:27:14;;;;;;;6.90;5.00;;;;;;;25.22;91.82;100546.09;4984669;28;20263;-77
2023/08/23 07:29:40;;;;;;;5.67;4.30;;;;;;;25.61;92.17;100547.00;4988625;28;20216;-77
2023/08/23 07:32:05;;;;;;;6.43;5.18;;;;;;;25.37;91.64;100549.50;4997733;28;20894;-76
2023/08/23 07:34:31;;;;;;;4.63;4.10;;;;;;;25.87;90.25;100547.00;4981454;28;20200;-77
2023/08/23 07:36:56;;;;;;;8.87;4.93;;;;;;;25.93;89.65;100549.25;4985164;28;20236;-79
2023/08/23 07:39:21;;;;;;;7.77;4.80;;;;;;;25.42;90.50;100553.56;5001857;28;20213;-76
2023/08/23 07:41:47;;;;;;;6.27;4.50;;;;;;;25.46;92.36;100556.88;4973591;28;20276;-78
2023/08/23 07:44:12;;;;;;;5.85;4.60;;;;;;;25.95;89.50;100554.44;4988071;28;20188;-77
2023/08/23 07:46:37;;;;;;;5.67;4.63;;;;;;;25.84;90.02;100556.03;4976356;28;20301;-78
2023/08/23 07:49:03;;;;;;;7.00;5.00;;;;;;;25.96;89.36;100551.69;4988782;28;20208;-76
2023/08/23 07:51:28;;;;;;;6.88;4.30;;;;;;;26.52;89.22;100560.22;4985967;28;20567;-77
2023/08/23 07:53:53;;;;;;;4.13;3.60;;;;;;;26.80;87.15;100559.06;4983873;28;20273;-79
2023/08/23 07:56:19;;;;;;;4.57;4.18;;;;;;;26.97;87.27;100556.97;4984239;28;20209;-77
2023/08/23 07:58:44;;;;;;;5.43;4.25;;;;;;;27.10;86.97;100556.94;4982705;28;20666;-77
2023/08/23 08:01:09;;;;;;;5.35;4.22;;;;;;;27.05;86.18;100559.94;4987945;28;20216;-78
2023/08/23 08:03:35;;;;;;;5.43;4.32;;;;;;;26.93;85.41;100564.34;4984332;28;20189;-77
2023/08/23 08:06:00;;;;;;;6.40;4.43;;;;;;;26.97;85.60;100568.47;4984131;28;20213;-76
2023/08/23 08:08:26;;;;;;;4.97;4.47;;;;;;;26.56;88.13;100557.22;4988670;28;20736;-76
2023/08/23 08:10:51;;;;;;;5.03;4.60;;;;;;;26.76;87.38;100560.25;4982535;28;20260;-76
2023/08/23 08:13:17;;;;;;;5.57;4.07;;;;;;;26.70;87.33;100558.84;4988634;28;20195;-78
2023/08/23 08:15:42;;;;;;;7.13;4.57;;;;;;;26.56;87.76;100559.88;4987250;28;20209;-80
2023/08/23 08:18:07;;;;;;;6.03;4.85;;;;;;;26.02;90.62;100556.53;4982904;28;20220;-79
2023/08/23 08:20:33;;;;;;;6.37;4.70;;;;;;;26.04;90.22;100564.41;4987726;28;20240;-80
2023/08/23 08:22:58;;;;;;;5.13;4.63;;;;;;;26.34;89.47;100557.94;4992330;28;20184;-78
2023/08/23 08:25:24;;;;;;;7.63;4.87;;;;;;;26.35;89.83;100553.44;4984815;28;20680;-76
2023/08/23 08:27:50;;;;;;;6.00;5.37;;;;;;;26.42;90.11;100563.50;4985685;28;20232;-78
2023/08/23 08:30:16;;;;;;;6.33;5.03;;;;;;;26.29;90.83;100560.03;4983112;28;20185;-78
2023/08/23 08:32:41;;;;;;;7.77;4.83;;;;;;;26.25;90.06;100559.44;4991970;28;20183;-77
2023/08/23 08:35:07;;;;;;;6.07;5.50;;;;;;;26.31;89.53;100564.31;4985993;28;20303;-79
2023/08/23 08:37:32;;;;;;;5.70;5.20;;;;;;;26.50;89.92;100562.97;5000328;28;20283;-78
2023/08/23 08:39:58;;;;;;;5.60;4.83;;;;;;;26.36;90.59;100560.44;4985487;28;20292;-77
2023/08/23 08:42:23;;;;;;;6.13;5.03;;;;;;;26.17;90.83;100559.09;4979695;28;20194;-75
2023/08/23 08:44:48;;;;;;;6.83;5.40;;;;;;;25.78;91.56;100569.72;4985870;28;20236;-77
2023/08/23 08:47:14;;;;;;;5.47;4.97;;;;;;;25.98;90.54;100567.47;4989036;28;20223;-77
2023/08/23 08:49:39;;;;;;;8.93;5.93;;;;;;;26.00;90.96;100563.78;4981647;28;20653;-78
2023/08/23 08:52:07;;;;;;;8.17;5.47;;;;;;;26.05;90.52;100562.59;4989480;28;20196;-79
2023/08/23 08:54:33;;;;;;;5.37;4.80;;;;;;;26.23;90.53;100569.28;4980444;28;20193;-78
2023/08/23 08:57:00;;;;;;;6.83;4.87;;;;;;;26.10;89.65;100576.38;4984303;28;20213;-77
2023/08/23 08:59:26;;;;;;;5.40;4.90;;;;;;;26.12;89.48;100567.38;4978042;28;20205;-76
2023/08/23 09:01:54;;;;;;;10.27;5.40;;;;;;;26.31;91.60;100571.41;4978435;28;20702;-76
2023/08/23 09:04:19;;;;;;;7.47;5.40;;;;;;;26.36;90.98;100573.72;4980995;28;20191;-77
2023/08/23 09:06:45;;;;;;;6.87;5.80;;;;;;;26.24;91.52;100565.69;4983328;28;20204;-77
2023/08/23 09:09:11;;;;;;;5.90;4.97;;;;;;;26.47;88.87;100571.16;4994848;28;20185;-77
2023/08/23 09:11:37;;;;;;;5.80;5.27;;;;;;;26.56;89.15;100574.94;4983967;28;20190;-78
2023/08/23 09:14:16;;;;;;;8.50;4.97;;;;;;;26.40;89.43;100570.72;4986751;28;20190;-77
2023/08/23 09:16:42;;;;;;;6.40;5.27;;;;;;;26.44;89.25;100579.34;4984091;28;20216;-77
2023/08/23 09:19:10;;;;;;;5.87;4.93;;;;;;;26.55;89.69;100563.50;4983983;28;20209;-78
2023/08/23 09:21:35;;;;;;;6.03;5.30;;;;;;;26.62;89.82;100572.69;4984147;28;20193;-77
2023/08/23 09:24:00;;;;;;;5.40;4.90;;;;;;;26.82;88.06;100570.44;4973248;28;20198;-78
2023/08/23 09:26:26;;;;;;;5.70;5.03;;;;;;;26.71;88.48;100557.06;4981227;28;20205;-77
2023/08/23 09:28:51;;;;;;;6.60;4.97;;;;;;;26.53;89.08;100567.22;4979133;28;20660;-77
2023/08/23 09:31:16;;;;;;;7.47;5.20;;;;;;;26.79;89.60;100560.03;4982842;28;20748;-76
2023/08/23 09:33:42;;;;;;;5.50;5.00;;;;;;;26.92;88.54;100565.28;4985879;28;20189;-78
2023/08/23 09:36:07;;;;;;;8.00;5.70;;;;;;;27.03;88.11;100552.06;4986111;28;20623;-77
2023/08/23 09:38:33;;;;;;;6.43;5.10;;;;;;;26.78;85.67;100556.50;4982275;28;20280;-77
2023/08/23 09:40:59;;;;;;;5.07;4.27;;;;;;;26.41;86.43;100542.41;4986064;28;20259;-77
2023/08/23 09:43:30;;;;;;;4.50;4.10;;;;;;;26.50;85.26;100551.53;4984267;28;20239;-76
2023/08/23 09:45:56;;;;;;;8.17;4.30;;;;;;;26.76;83.62;100553.13;4985276;28;20220;-77
2023/08/23 09:48:24;;;;;;;5.57;4.77;;;;;;;26.70;85.25;100547.41;4984160;28;20725;-77
2023/08/23 09:50:51;;;;;;;5.67;4.23;;;;;;;26.96;84.69;100552.63;4984288;28;20189;-76
2023/08/23 09:53:22;;;;;;;8.73;4.97;;;;;;;26.77;84.02;100551.31;4984449;28;20197;-76
2023/08/23 09:55:48;;;;;;;5.80;4.60;;;;;;;26.93;85.20;100554.56;4984117;28;20255;-78
2023/08/23 09:58:14;;;;;;;4.50;4.03;;;;;;;27.00;83.37;100554.94;4981693;28;20213;-80
2023/08/23 10:00:40;;;;;;;4.93;4.53;;;;;;;27.18;81.55;100550.09;4981373;28;20206;-77
2023/08/23 10:03:07;;;;;;;5.63;4.07;;;;;;;27.04;81.91;100559.06;4981569;28;20635;-77
2023/08/23 10:05:34;;;;;;;4.83;4.23;;;;;;;27.34;83.06;100551.59;4980147;28;20243;-76
2023/08/23 10:08:02;;;;;;;4.60;4.20;;;;;;;27.40;82.70;100548.44;4983597;28;20188;-76
2023/08/23 10:10:30;;;;;;;5.10;4.20;;;;;;;27.33;82.91;100561.34;4982242;28;20311;-78
2023/08/23 10:13:00;;;;;;;4.43;4.03;;;;;;;27.40;82.12;100543.13;4987890;28;20238;-78
2023/08/23 10:15:30;;;;;;;4.47;4.00;;;;;;;27.65;80.83;100550.09;4985481;28;20185;-75
2023/08/23 10:17:57;;;;;;;4.67;4.27;;;;;;;27.73;80.66;100568.13;4987167;28;20217;-76
2023/08/23 10:20:23;;;;;;;5.63;4.03;;;;;;;27.77;81.37;100552.78;4994046;28;20209;-78
2023/08/23 10:22:52;;;;;;;4.17;3.83;;;;;;;27.96;81.11;100544.22;4985369;28;20189;-76
2023/08/23 10:25:19;;;;;;;4.90;4.13;;;;;;;27.79;81.35;100553.50;4979545;28;20735;-77
2023/08/23 10:27:47;;;;;;;5.10;4.30;;;;;;;27.77;79.97;100555.44;4977342;28;20205;-76
2023/08/23 10:30:27;;;;;;;5.83;4.17;;;;;;;27.73;80.68;100554.00;4986925;28;20176;-78
2023/08/23 10:32:53;;;;;;;4.50;4.00;;;;;;;28.05;80.61;100548.81;4981937;28;20223;-77
2023/08/23 10:35:34;;;;;;;5.33;4.00;;;;;;;27.91;80.75;100544.56;4981492;28;20182;-78
2023/08/23 10:38:00;;;;;;;4.23;3.60;;;;;;;28.22;80.89;100549.31;4982433;28;20192;-78
2023/08/23 10:40:30;;;;;;;4.73;4.33;;;;;;;28.10;79.54;100538.69;4979036;28;20219;-77
2023/08/23 10:42:55;;;;;;;6.00;4.20;;;;;;;27.97;80.41;100533.44;4982585;28;20191;-78
2023/08/23 10:45:21;;;;;;;4.23;3.93;;;;;;;27.90;78.98;100537.56;4985073;28;20189;-79
2023/08/23 10:47:50;;;;;;;5.63;4.30;;;;;;;28.18;78.85;100524.78;4985522;28;20196;-78
2023/08/23 10:50:16;;;;;;;5.27;4.40;;;;;;;28.05;79.69;100532.84;4997503;28;20914;-77
2023/08/23 10:52:42;;;;;;;4.23;3.83;;;;;;;28.08;82.00;100524.63;4977549;28;20198;-81
2023/08/23 10:55:07;;;;;;;6.93;4.23;;;;;;;27.99;81.81;100530.66;4985586;28;20204;-78
2023/08/23 10:57:33;;;;;;;4.30;3.90;;;;;;;28.14;80.25;100528.66;4978673;28;20739;-77
2023/08/23 10:59:58;;;;;;;4.43;3.60;;;;;;;28.44;79.69;100522.66;4977325;28;20225;-78
2023/08/23 11:02:23;;;;;;;5.80;4.20;;;;;;;28.28;78.34;100527.56;4983804;28;20201;-76
2023/08/23 11:04:49;;;;;;;4.67;4.00;;;;;;;28.35;77.90;100531.41;4986656;28;20567;-76
2023/08/23 11:07:15;;;;;;;5.37;4.10;;;;;;;28.51;78.13;100525.66;4984554;28;20205;-79
2023/08/23 11:09:41;;;;;;;6.17;4.27;;;;;;;28.63;77.80;100526.50;4987240;28;20196;-77
2023/08/23 11:12:07;;;;;;;4.77;3.60;;;;;;;28.53;77.44;100523.72;4980974;28;20189;-78
2023/08/23 11:14:32;;;;;;;4.13;3.73;;;;;;;28.63;77.22;100523.00;4980246;28;20255;-76